createdAt,value
2019-01-12T00:00:51.812Z,85.06
2019-01-12T00:01:52.457Z,85.27
2019-01-12T00:02:53.180Z,85.47
2019-01-12T00:03:53.802Z,86.09
2019-01-12T00:04:54.502Z,86.19
2019-01-12T00:05:55.143Z,85.58
2019-01-12T00:06:56.868Z,85.68
2019-01-12T00:07:57.510Z,85.38
2019-01-12T00:08:58.217Z,85.58
2019-01-12T00:09:58.853Z,85.58
2019-01-12T00:10:59.516Z,85.78
2019-01-12T00:12:00.160Z,85.38
2019-01-12T00:13:00.851Z,85.58
2019-01-12T00:14:01.491Z,85.78
2019-01-12T00:15:02.196Z,85.27
2019-01-12T00:16:02.836Z,86.09
2019-01-12T00:17:03.543Z,86.30
2019-01-12T00:18:04.181Z,86.40
2019-01-12T00:19:04.888Z,87.16
2019-01-12T00:20:05.527Z,86.95
2019-01-12T00:21:06.230Z,86.95
2019-01-12T00:22:06.870Z,86.60
2019-01-12T00:23:07.564Z,86.44
2019-01-12T00:24:08.214Z,86.65
2019-01-12T00:25:08.911Z,86.13
2019-01-12T00:26:09.548Z,86.54
2019-01-12T00:27:10.257Z,86.65
2019-01-12T00:28:10.898Z,86.24
2019-01-12T00:29:11.605Z,86.85
2019-01-12T00:30:12.242Z,86.65
2019-01-12T00:31:12.948Z,86.95
2019-01-12T00:32:13.591Z,86.95
2019-01-12T00:33:14.291Z,86.95
2019-01-12T00:34:14.933Z,87.16
2019-01-12T00:35:15.640Z,86.44
2019-01-12T00:36:16.276Z,86.54
2019-01-12T00:37:16.982Z,86.65
2019-01-12T00:38:17.624Z,86.65
2019-01-12T00:39:18.329Z,86.54
2019-01-12T00:40:18.969Z,86.65
2019-01-12T00:41:19.672Z,86.13
2019-01-12T00:42:20.307Z,86.54
2019-01-12T00:43:21.015Z,86.44
2019-01-12T00:44:21.651Z,86.24
2019-01-12T00:45:22.362Z,86.13
2019-01-12T00:46:22.995Z,86.03
2019-01-12T00:47:23.701Z,86.33
2019-01-12T00:48:24.341Z,86.13
2019-01-12T00:49:25.048Z,86.13
2019-01-12T00:50:25.683Z,85.82
2019-01-12T00:51:26.393Z,86.13
2019-01-12T00:52:27.040Z,86.33
2019-01-12T00:53:27.734Z,86.13
2019-01-12T00:54:28.374Z,86.03
2019-01-12T00:55:29.078Z,85.93
2019-01-12T00:56:29.718Z,86.13
2019-01-12T00:57:30.426Z,85.93
2019-01-12T00:58:31.062Z,85.72
2019-01-12T00:59:31.784Z,85.93
2019-01-12T01:00:32.420Z,86.03
2019-01-12T01:01:33.113Z,85.62
2019-01-12T01:02:33.749Z,85.41
2019-01-12T01:03:34.459Z,85.52
2019-01-12T01:04:35.096Z,85.62
2019-01-12T01:05:35.804Z,85.52
2019-01-12T01:06:36.446Z,85.31
2019-01-12T01:07:37.149Z,85.52
2019-01-12T01:08:37.785Z,85.72
2019-01-12T01:09:38.495Z,85.62
2019-01-12T01:10:39.134Z,85.93
2019-01-12T01:11:39.841Z,85.82
2019-01-12T01:12:40.478Z,85.62
2019-01-12T01:13:41.183Z,85.62
2019-01-12T01:14:41.824Z,85.82
2019-01-12T01:15:42.519Z,85.93
2019-01-12T01:16:43.157Z,85.41
2019-01-12T01:17:43.869Z,85.41
2019-01-12T01:18:44.505Z,85.62
2019-01-12T01:19:45.146Z,85.62
2019-01-12T01:20:45.785Z,85.93
2019-01-12T01:21:46.422Z,85.82
2019-01-12T01:22:47.068Z,85.72
2019-01-12T01:23:47.707Z,85.41
2019-01-12T01:24:48.347Z,85.41
2019-01-12T01:25:48.995Z,85.52
2019-01-12T01:26:49.632Z,85.52
2019-01-12T01:27:50.280Z,85.31
2019-01-12T01:28:50.919Z,85.11
2019-01-12T01:29:51.558Z,85.11
2019-01-12T01:30:52.201Z,85.11
2019-01-12T01:31:52.843Z,85.82
2019-01-12T01:32:53.478Z,85.76
2019-01-12T01:33:54.120Z,85.82
2019-01-12T01:34:54.754Z,85.62
2019-01-12T01:35:55.398Z,85.86
2019-01-12T01:36:56.029Z,86.03
2019-01-12T01:37:56.675Z,85.86
2019-01-12T01:38:57.307Z,86.07
2019-01-12T01:39:57.949Z,86.03
2019-01-12T01:40:58.583Z,86.17
2019-01-12T01:41:59.225Z,85.97
2019-01-12T01:42:59.863Z,86.17
2019-01-12T01:44:00.512Z,86.17
2019-01-12T01:45:01.149Z,86.07
2019-01-12T01:46:01.785Z,85.52
2019-01-12T01:47:02.427Z,86.13
2019-01-12T01:48:03.066Z,86.03
2019-01-12T01:49:03.700Z,86.17
2019-01-12T01:50:04.345Z,86.13
2019-01-12T01:51:04.983Z,86.68
2019-01-12T01:52:05.629Z,86.65
2019-01-12T01:53:06.262Z,86.44
2019-01-12T01:54:06.905Z,85.93
2019-01-12T01:55:07.546Z,86.65
2019-01-12T01:56:08.188Z,86.54
2019-01-12T01:57:08.825Z,86.65
2019-01-12T01:58:09.469Z,86.75
2019-01-12T01:59:10.104Z,86.65
2019-01-12T02:00:10.745Z,86.54
2019-01-12T02:01:11.387Z,86.85
2019-01-12T02:02:12.029Z,86.75
2019-01-12T02:03:12.666Z,86.95
2019-01-12T02:04:13.319Z,87.16
2019-01-12T02:05:13.946Z,86.99
2019-01-12T02:06:14.589Z,87.05
2019-01-12T02:07:15.226Z,86.95
2019-01-12T02:08:15.865Z,86.95
2019-01-12T02:09:16.501Z,87.26
2019-01-12T02:10:17.141Z,87.26
2019-01-12T02:11:17.781Z,86.85
2019-01-12T02:12:19.422Z,87.16
2019-01-12T02:13:20.072Z,87.16
2019-01-12T02:14:20.716Z,86.95
2019-01-12T02:15:21.353Z,87.37
2019-01-12T02:16:21.992Z,87.51
2019-01-12T02:17:22.623Z,86.99
2019-01-12T02:18:24.274Z,87.16
2019-01-12T02:19:24.928Z,87.16
2019-01-12T02:20:25.558Z,87.30
2019-01-12T02:21:26.200Z,87.37
2019-01-12T02:22:26.840Z,87.26
2019-01-12T02:23:27.478Z,87.67
2019-01-12T02:24:28.130Z,87.82
2019-01-12T02:25:28.768Z,87.61
2019-01-12T02:26:29.409Z,87.16
2019-01-12T02:27:30.055Z,87.71
2019-01-12T02:28:30.681Z,87.26
2019-01-12T02:29:31.313Z,87.67
2019-01-12T02:30:31.965Z,87.37
2019-01-12T02:31:32.600Z,87.71
2019-01-12T02:32:33.242Z,87.30
2019-01-12T02:33:33.877Z,87.77
2019-01-12T02:34:34.524Z,87.67
2019-01-12T02:35:35.170Z,87.77
2019-01-12T02:36:35.803Z,87.61
2019-01-12T02:37:36.446Z,87.82
2019-01-12T02:38:37.117Z,87.67
2019-01-12T02:39:37.756Z,87.26
2019-01-12T02:40:38.392Z,87.67
2019-01-12T02:41:39.033Z,87.46
2019-01-12T02:42:39.674Z,87.40
2019-01-12T02:43:40.311Z,87.61
2019-01-12T02:44:40.959Z,87.61
2019-01-12T02:45:41.593Z,87.30
2019-01-12T02:46:42.239Z,86.85
2019-01-12T02:47:42.873Z,87.61
2019-01-12T02:48:43.523Z,87.51
2019-01-12T02:49:44.164Z,87.20
2019-01-12T02:50:44.798Z,87.26
2019-01-12T02:51:45.445Z,87.16
2019-01-12T02:52:46.081Z,86.99
2019-01-12T02:53:46.716Z,86.95
2019-01-12T02:54:47.365Z,87.37
2019-01-12T02:55:48.005Z,87.16
2019-01-12T02:56:48.645Z,87.46
2019-01-12T02:57:49.288Z,87.37
2019-01-12T02:58:49.934Z,87.57
2019-01-12T02:59:50.569Z,87.37
2019-01-12T03:00:51.208Z,87.26
2019-01-12T03:01:51.837Z,87.20
2019-01-12T03:02:52.495Z,86.95
2019-01-12T03:03:53.133Z,87.40
2019-01-12T03:04:53.772Z,87.30
2019-01-12T03:05:54.418Z,87.51
2019-01-12T03:06:55.046Z,87.71
2019-01-12T03:07:55.755Z,87.71
2019-01-12T03:08:56.337Z,87.71
2019-01-12T03:09:56.965Z,88.12
2019-01-12T03:10:57.597Z,87.71
2019-01-12T03:11:58.244Z,87.71
2019-01-12T03:12:58.881Z,87.61
2019-01-12T03:13:59.521Z,87.61
2019-01-12T03:15:00.465Z,87.40
2019-01-12T03:16:00.794Z,87.30
2019-01-12T03:17:01.753Z,87.82
2019-01-12T03:18:02.385Z,87.71
2019-01-12T03:19:03.032Z,87.82
2019-01-12T03:20:03.668Z,87.71
2019-01-12T03:21:04.303Z,87.40
2019-01-12T03:22:04.944Z,87.40
2019-01-12T03:23:06.596Z,87.20
2019-01-12T03:24:07.226Z,87.51
2019-01-12T03:25:07.879Z,87.61
2019-01-12T03:26:08.511Z,87.37
2019-01-12T03:27:09.151Z,87.51
2019-01-12T03:28:09.784Z,87.71
2019-01-12T03:29:10.431Z,87.82
2019-01-12T03:30:11.095Z,87.51
2019-01-12T03:31:11.745Z,87.51
2019-01-12T03:32:12.368Z,87.40
2019-01-12T03:33:13.020Z,87.61
2019-01-12T03:34:13.630Z,87.20
2019-01-12T03:35:14.275Z,87.40
2019-01-12T03:36:14.915Z,87.20
2019-01-12T03:37:15.573Z,87.71
2019-01-12T03:38:16.221Z,87.92
2019-01-12T03:39:17.115Z,87.92
2019-01-12T03:40:17.748Z,87.92
2019-01-12T03:41:19.390Z,87.71
2019-01-12T03:42:20.037Z,87.51
2019-01-12T03:43:20.688Z,88.12
2019-01-12T03:44:21.324Z,88.12
2019-01-12T03:45:21.969Z,88.02
2019-01-12T03:46:22.602Z,88.02
2019-01-12T03:47:24.246Z,88.12
2019-01-12T03:48:24.893Z,88.02
2019-01-12T03:49:25.530Z,87.92
2019-01-12T03:50:26.210Z,88.12
2019-01-12T03:51:26.836Z,88.23
2019-01-12T03:52:27.482Z,88.02
2019-01-12T03:53:28.115Z,88.12
2019-01-12T03:54:28.748Z,88.02
2019-01-12T03:55:29.411Z,88.02
2019-01-12T03:56:30.034Z,88.64
2019-01-12T03:57:30.671Z,88.64
2019-01-12T03:58:31.315Z,87.92
2019-01-12T03:59:31.948Z,88.43
2019-01-12T04:00:32.585Z,88.53
2019-01-12T04:01:33.225Z,88.43
2019-01-12T04:02:33.864Z,88.02
2019-01-12T04:03:34.505Z,88.53
2019-01-12T04:04:35.141Z,88.33
2019-01-12T04:05:35.787Z,88.64
2019-01-12T04:06:36.424Z,88.64
2019-01-12T04:07:37.081Z,88.12
2019-01-12T04:08:37.705Z,88.12
2019-01-12T04:09:38.350Z,87.92
2019-01-12T04:10:38.989Z,88.02
2019-01-12T04:11:39.633Z,88.23
2019-01-12T04:12:40.270Z,87.92
2019-01-12T04:13:40.912Z,88.43
2019-01-12T04:14:41.547Z,88.02
2019-01-12T04:15:42.191Z,88.12
2019-01-12T04:16:42.841Z,88.02
2019-01-12T04:17:43.482Z,88.12
2019-01-12T04:18:44.112Z,88.02
2019-01-12T04:19:44.757Z,88.02
2019-01-12T04:20:45.399Z,88.02
2019-01-12T04:21:46.048Z,87.92
2019-01-12T04:22:46.683Z,87.82
2019-01-12T04:23:47.342Z,88.23
2019-01-12T04:24:47.960Z,88.02
2019-01-12T04:25:48.608Z,87.92
2019-01-12T04:26:49.242Z,88.02
2019-01-12T04:27:49.893Z,88.23
2019-01-12T04:28:50.531Z,88.23
2019-01-12T04:29:51.171Z,88.12
2019-01-12T04:30:51.821Z,88.02
2019-01-12T04:31:52.459Z,88.12
2019-01-12T04:32:53.107Z,88.06
2019-01-12T04:33:53.782Z,88.57
2019-01-12T04:34:54.377Z,88.47
2019-01-12T04:35:55.023Z,88.37
2019-01-12T04:36:55.657Z,88.23
2019-01-12T04:37:56.302Z,88.43
2019-01-12T04:38:56.941Z,88.17
2019-01-12T04:39:57.579Z,87.92
2019-01-12T04:40:58.222Z,88.02
2019-01-12T04:41:58.866Z,88.17
2019-01-12T04:42:59.505Z,88.02
2019-01-12T04:44:00.146Z,88.12
2019-01-12T04:45:01.792Z,87.92
2019-01-12T04:46:02.433Z,88.23
2019-01-12T04:47:03.080Z,88.12
2019-01-12T04:48:03.719Z,87.92
2019-01-12T04:49:04.358Z,87.92
2019-01-12T04:50:04.998Z,87.82
2019-01-12T04:51:05.640Z,88.02
2019-01-12T04:52:06.276Z,88.23
2019-01-12T04:53:06.927Z,87.92
2019-01-12T04:54:07.572Z,88.17
2019-01-12T04:55:08.211Z,87.92
2019-01-12T04:56:08.845Z,88.23
2019-01-12T04:57:09.486Z,88.17
2019-01-12T04:58:10.125Z,88.12
2019-01-12T04:59:10.772Z,87.82
2019-01-12T05:00:11.399Z,87.61
2019-01-12T05:01:12.038Z,88.06
2019-01-12T05:02:12.681Z,88.57
2019-01-12T05:03:13.328Z,88.06
2019-01-12T05:04:13.970Z,88.51
2019-01-12T05:05:14.611Z,88.47
2019-01-12T05:06:15.240Z,88.06
2019-01-12T05:07:15.887Z,87.96
2019-01-12T05:08:16.526Z,88.17
2019-01-12T05:09:17.171Z,87.96
2019-01-12T05:10:17.808Z,88.06
2019-01-12T05:11:18.463Z,88.00
2019-01-12T05:12:19.090Z,88.47
2019-01-12T05:13:19.820Z,88.68
2019-01-12T05:14:20.478Z,88.27
2019-01-12T05:15:21.099Z,88.17
2019-01-12T05:16:21.740Z,88.17
2019-01-12T05:17:22.375Z,88.06
2019-01-12T05:18:23.016Z,88.17
2019-01-12T05:19:30.330Z,88.27
2019-01-12T05:20:30.976Z,87.96
2019-01-12T05:21:31.611Z,87.90
2019-01-12T05:22:32.248Z,88.00
2019-01-12T05:23:32.894Z,87.85
2019-01-12T05:24:33.530Z,88.00
2019-01-12T05:25:34.169Z,87.90
2019-01-12T05:26:34.807Z,87.90
2019-01-12T05:27:36.454Z,87.90
2019-01-12T05:28:37.084Z,88.20
2019-01-12T05:29:37.722Z,87.90
2019-01-12T05:30:38.360Z,88.10
2019-01-12T05:31:39.006Z,88.10
2019-01-12T05:32:39.640Z,88.20
2019-01-12T05:33:40.283Z,87.90
2019-01-12T05:34:40.924Z,88.72
2019-01-12T05:35:41.563Z,88.10
2019-01-12T05:36:42.206Z,88.66
2019-01-12T05:37:42.842Z,88.51
2019-01-12T05:38:43.523Z,88.72
2019-01-12T05:39:44.131Z,88.62
2019-01-12T05:40:44.780Z,88.10
2019-01-12T05:41:45.406Z,88.10
2019-01-12T05:42:46.041Z,88.10
2019-01-12T05:43:46.684Z,88.20
2019-01-12T05:44:47.318Z,88.10
2019-01-12T05:45:47.963Z,87.59
2019-01-12T05:46:48.605Z,87.90
2019-01-12T05:47:57.834Z,87.90
2019-01-12T05:48:58.470Z,87.79
2019-01-12T05:50:01.118Z,87.90
2019-01-12T05:51:01.760Z,88.00
2019-01-12T05:52:02.399Z,88.20
2019-01-12T05:53:03.039Z,88.00
2019-01-12T05:54:03.691Z,87.69
2019-01-12T05:55:04.325Z,88.00
2019-01-12T05:56:04.959Z,88.00
2019-01-12T05:57:05.600Z,87.90
2019-01-12T05:58:06.246Z,88.35
2019-01-12T05:59:08.814Z,88.24
2019-01-12T06:00:11.307Z,88.35
2019-01-12T06:01:11.957Z,88.35
2019-01-12T06:02:12.589Z,88.24
2019-01-12T06:03:13.238Z,88.14
2019-01-12T06:04:13.873Z,88.10
2019-01-12T06:05:14.510Z,88.04
2019-01-12T06:06:15.149Z,88.00
2019-01-12T06:07:15.788Z,87.90
2019-01-12T06:08:16.434Z,88.20
2019-01-12T06:09:17.069Z,88.10
2019-01-12T06:10:17.712Z,88.00
2019-01-12T06:11:18.353Z,87.69
2019-01-12T06:12:19.010Z,87.90
2019-01-12T06:13:19.652Z,87.79
2019-01-12T06:14:20.296Z,87.90
2019-01-12T06:15:20.934Z,87.79
2019-01-12T06:16:21.577Z,87.69
2019-01-12T06:17:22.220Z,87.90
2019-01-12T06:18:22.860Z,88.20
2019-01-12T06:19:23.510Z,88.31
2019-01-12T06:20:24.151Z,88.10
2019-01-12T06:21:24.792Z,87.79
2019-01-12T06:22:25.435Z,88.04
2019-01-12T06:23:26.170Z,88.24
2019-01-12T06:24:26.707Z,88.45
2019-01-12T06:25:27.346Z,88.24
2019-01-12T06:26:27.990Z,88.35
2019-01-12T06:27:28.629Z,88.45
2019-01-12T06:28:29.267Z,88.14
2019-01-12T06:29:29.905Z,88.04
2019-01-12T06:30:30.547Z,88.14
2019-01-12T06:31:31.188Z,87.94
2019-01-12T06:32:31.829Z,88.35
2019-01-12T06:33:32.470Z,87.94
2019-01-12T06:34:33.111Z,88.04
2019-01-12T06:35:33.751Z,88.24
2019-01-12T06:36:35.114Z,87.84
2019-01-12T06:37:35.035Z,87.84
2019-01-12T06:38:35.685Z,87.79
2019-01-12T06:39:36.316Z,87.63
2019-01-12T06:40:36.958Z,87.28
2019-01-12T06:41:37.602Z,87.28
2019-01-12T06:42:38.250Z,87.38
2019-01-12T06:43:38.885Z,87.32
2019-01-12T06:44:39.523Z,87.49
2019-01-12T06:45:40.164Z,87.28
2019-01-12T06:46:40.804Z,87.07
2019-01-12T06:47:41.450Z,87.07
2019-01-12T06:48:42.138Z,87.18
2019-01-12T06:49:42.742Z,87.28
2019-01-12T06:50:43.374Z,86.87
2019-01-12T06:51:44.019Z,87.22
2019-01-12T06:52:45.666Z,87.18
2019-01-12T06:53:46.306Z,86.87
2019-01-12T06:54:46.967Z,86.77
2019-01-12T06:55:47.602Z,86.66
2019-01-12T06:56:48.253Z,86.91
2019-01-12T06:57:48.896Z,86.80
2019-01-12T06:58:49.546Z,87.22
2019-01-12T06:59:50.192Z,87.32
2019-01-12T07:00:50.853Z,87.22
2019-01-12T07:01:51.477Z,87.22
2019-01-12T07:02:52.122Z,86.60
2019-01-12T07:03:52.777Z,86.80
2019-01-12T07:04:53.400Z,86.80
2019-01-12T07:05:54.049Z,86.70
2019-01-12T07:06:54.691Z,87.01
2019-01-12T07:07:55.326Z,86.91
2019-01-12T07:08:55.967Z,86.70
2019-01-12T07:09:56.602Z,87.67
2019-01-12T07:10:57.238Z,87.46
2019-01-12T07:11:57.892Z,87.36
2019-01-12T07:12:58.539Z,87.63
2019-01-12T07:13:59.172Z,87.57
2019-01-12T07:14:59.813Z,87.57
2019-01-12T07:16:00.449Z,87.32
2019-01-12T07:17:01.097Z,87.42
2019-01-12T07:18:01.733Z,87.36
2019-01-12T07:19:02.374Z,87.46
2019-01-12T07:20:03.015Z,87.67
2019-01-12T07:21:03.651Z,88.02
2019-01-12T07:22:04.294Z,88.29
2019-01-12T07:23:04.936Z,88.39
2019-01-12T07:24:05.573Z,88.39
2019-01-12T07:25:06.212Z,87.87
2019-01-12T07:26:06.852Z,87.87
2019-01-12T07:27:07.511Z,88.08
2019-01-12T07:28:08.155Z,87.57
2019-01-12T07:29:08.792Z,87.42
2019-01-12T07:30:09.430Z,87.52
2019-01-12T07:31:10.070Z,87.52
2019-01-12T07:32:10.711Z,87.26
2019-01-12T07:33:11.349Z,87.57
2019-01-12T07:34:11.989Z,87.57
2019-01-12T07:35:12.627Z,87.26
2019-01-12T07:36:13.266Z,87.57
2019-01-12T07:37:13.915Z,87.46
2019-01-12T07:38:14.548Z,87.57
2019-01-12T07:39:15.191Z,87.67
2019-01-12T07:40:15.858Z,87.67
2019-01-12T07:41:16.506Z,87.57
2019-01-12T07:42:17.145Z,87.15
2019-01-12T07:43:17.799Z,87.36
2019-01-12T07:44:18.424Z,87.22
2019-01-12T07:45:19.072Z,87.12
2019-01-12T07:46:19.711Z,87.22
2019-01-12T07:47:20.356Z,87.26
2019-01-12T07:48:21.006Z,86.91
2019-01-12T07:49:21.633Z,86.95
2019-01-12T07:50:22.269Z,87.12
2019-01-12T07:51:22.915Z,87.15
2019-01-12T07:52:23.557Z,87.57
2019-01-12T07:53:24.204Z,87.26
2019-01-12T07:54:24.842Z,87.22
2019-01-12T07:55:25.482Z,86.70
2019-01-12T07:56:26.124Z,86.80
2019-01-12T07:57:26.773Z,86.70
2019-01-12T07:58:27.425Z,86.70
2019-01-12T07:59:28.065Z,86.60
2019-01-12T08:00:28.703Z,86.70
2019-01-12T08:01:29.350Z,86.70
2019-01-12T08:02:29.982Z,86.19
2019-01-12T08:03:30.631Z,86.70
2019-01-12T08:04:31.260Z,85.98
2019-01-12T08:05:31.921Z,86.91
2019-01-12T08:06:32.552Z,86.40
2019-01-12T08:07:33.191Z,86.40
2019-01-12T08:08:33.843Z,86.29
2019-01-12T08:09:34.470Z,85.47
2019-01-12T08:10:35.107Z,85.26
2019-01-12T08:11:36.772Z,85.78
2019-01-12T08:12:37.421Z,85.98
2019-01-12T08:13:38.054Z,85.57
2019-01-12T08:14:38.689Z,85.57
2019-01-12T08:15:39.326Z,85.61
2019-01-12T08:16:39.971Z,85.78
2019-01-12T08:17:40.610Z,86.08
2019-01-12T08:18:41.254Z,86.08
2019-01-12T08:19:41.894Z,85.68
2019-01-12T08:20:42.529Z,85.47
2019-01-12T08:21:43.178Z,86.02
2019-01-12T08:22:43.815Z,86.02
2019-01-12T08:23:44.457Z,85.78
2019-01-12T08:24:45.089Z,85.30
2019-01-12T08:25:46.751Z,86.02
2019-01-12T08:26:47.383Z,85.98
2019-01-12T08:27:48.075Z,85.68
2019-01-12T08:28:48.721Z,85.68
2019-01-12T08:29:49.412Z,85.57
2019-01-12T08:30:50.053Z,85.16
2019-01-12T08:31:50.785Z,85.71
2019-01-12T08:32:51.396Z,85.71
2019-01-12T08:33:52.107Z,85.68
2019-01-12T08:34:52.736Z,85.26
2019-01-12T08:35:53.450Z,85.57
2019-01-12T08:36:54.084Z,85.68
2019-01-12T08:37:54.789Z,85.78
2019-01-12T08:38:55.426Z,85.57
2019-01-12T08:39:56.136Z,85.88
2019-01-12T08:40:56.775Z,85.57
2019-01-12T08:41:57.482Z,85.36
2019-01-12T08:42:58.125Z,85.68
2019-01-12T08:43:58.827Z,85.47
2019-01-12T08:44:59.464Z,85.57
2019-01-12T08:46:00.168Z,85.78
2019-01-12T08:47:00.811Z,85.57
2019-01-12T08:48:01.516Z,85.57
2019-01-12T08:49:02.157Z,85.30
2019-01-12T08:50:02.859Z,85.61
2019-01-12T08:51:03.498Z,85.26
2019-01-12T08:52:05.228Z,85.26
2019-01-12T08:53:05.868Z,85.98
2019-01-12T08:54:06.501Z,85.78
2019-01-12T08:55:07.193Z,85.68
2019-01-12T08:56:07.834Z,85.78
2019-01-12T08:57:08.563Z,85.68
2019-01-12T08:58:09.184Z,85.78
2019-01-12T08:59:09.892Z,85.26
2019-01-12T09:00:10.523Z,85.47
2019-01-12T09:01:11.237Z,85.16
2019-01-12T09:02:11.872Z,85.53
2019-01-12T09:03:12.585Z,85.16
2019-01-12T09:04:13.214Z,85.06
2019-01-12T09:05:13.926Z,85.36
2019-01-12T09:06:14.557Z,85.57
2019-01-12T09:07:15.270Z,85.78
2019-01-12T09:08:15.902Z,86.29
2019-01-12T09:09:16.632Z,85.88
2019-01-12T09:10:17.306Z,85.68
2019-01-12T09:11:18.939Z,85.98
2019-01-12T09:12:19.581Z,86.60
2019-01-12T09:13:20.224Z,86.29
2019-01-12T09:14:21.922Z,86.50
2019-01-12T09:15:22.559Z,86.80
2019-01-12T09:16:24.290Z,87.22
2019-01-12T09:17:24.927Z,87.52
2019-01-12T09:18:25.635Z,87.57
2019-01-12T09:19:26.273Z,87.46
2019-01-12T09:20:35.889Z,87.52
2019-01-12T09:21:36.522Z,87.46
2019-01-12T09:22:37.235Z,87.94
2019-01-12T09:23:37.870Z,87.98
2019-01-12T09:24:40.622Z,87.73
2019-01-12T09:25:41.264Z,88.18
2019-01-12T09:26:44.999Z,88.29
2019-01-12T09:27:43.028Z,88.18
2019-01-12T09:28:43.722Z,88.08
2019-01-12T09:29:44.551Z,88.70
2019-01-12T09:30:48.543Z,88.18
2019-01-12T09:31:45.908Z,88.35
2019-01-12T09:32:46.675Z,88.08
2019-01-12T09:33:47.257Z,88.29
2019-01-12T09:34:47.960Z,88.56
2019-01-12T09:35:48.598Z,88.04
2019-01-12T09:36:49.238Z,88.04
2019-01-12T09:37:49.878Z,87.63
2019-01-12T09:38:58.431Z,87.52
2019-01-12T09:39:59.074Z,87.73
2019-01-12T09:41:06.434Z,87.22
2019-01-12T09:42:07.071Z,87.52
2019-01-12T09:43:09.723Z,87.52
2019-01-12T09:44:10.361Z,87.32
2019-01-12T09:45:11.006Z,87.42
2019-01-12T09:46:11.650Z,87.42
2019-01-12T09:47:18.849Z,87.63
2019-01-12T09:48:19.489Z,87.67
2019-01-12T09:49:22.155Z,87.73
2019-01-12T09:50:22.791Z,87.63
2019-01-12T09:51:23.432Z,87.63
2019-01-12T09:52:24.070Z,87.42
2019-01-12T09:53:24.705Z,87.42
2019-01-12T09:54:25.356Z,87.22
2019-01-12T09:55:33.856Z,87.63
2019-01-12T09:56:34.502Z,87.12
2019-01-12T09:57:35.147Z,87.18
2019-01-12T09:58:35.794Z,87.01
2019-01-12T09:59:45.354Z,87.22
2019-01-12T10:00:45.999Z,87.12
2019-01-12T10:01:46.632Z,86.70
2019-01-12T10:02:47.291Z,86.91
2019-01-12T10:03:56.876Z,87.22
2019-01-12T10:04:57.519Z,87.32
2019-01-12T10:06:00.166Z,87.01
2019-01-12T10:07:00.808Z,87.22
2019-01-12T10:08:01.448Z,87.26
2019-01-12T10:09:02.087Z,87.46
2019-01-12T10:10:09.350Z,87.22
2019-01-12T10:11:09.992Z,87.42
2019-01-12T10:12:11.641Z,87.52
2019-01-12T10:13:12.276Z,87.26
2019-01-12T10:14:13.931Z,87.67
2019-01-12T10:15:14.571Z,87.77
2019-01-12T10:16:15.216Z,87.87
2019-01-12T10:17:15.845Z,88.14
2019-01-12T10:18:17.488Z,87.94
2019-01-12T10:19:18.119Z,87.94
2019-01-12T10:20:19.763Z,87.42
2019-01-12T10:21:20.400Z,87.42
2019-01-12T10:22:28.431Z,87.49
2019-01-12T10:23:22.691Z,87.73
2019-01-12T10:24:37.847Z,87.32
2019-01-12T10:25:38.482Z,87.32
2019-01-12T10:26:45.852Z,87.32
2019-01-12T10:27:46.487Z,87.63
2019-01-12T10:28:47.126Z,87.46
2019-01-12T10:29:47.762Z,87.84
2019-01-12T10:30:55.351Z,87.94
2019-01-12T10:31:55.989Z,87.73
2019-01-12T10:32:56.639Z,87.73
2019-01-12T10:33:57.266Z,87.98
2019-01-12T10:34:59.959Z,88.08
2019-01-12T10:36:00.565Z,88.35
2019-01-12T10:37:07.959Z,88.18
2019-01-12T10:38:08.585Z,88.80
2019-01-12T10:39:17.777Z,88.80
2019-01-12T10:40:12.016Z,88.08
2019-01-12T10:41:12.683Z,88.70
2019-01-12T10:42:13.323Z,88.39
2019-01-12T10:43:20.883Z,88.04
2019-01-12T10:44:21.525Z,87.94
2019-01-12T10:45:23.258Z,88.18
2019-01-12T10:46:23.895Z,88.14
2019-01-12T10:47:25.623Z,88.14
2019-01-12T10:48:26.262Z,87.84
2019-01-12T10:49:27.951Z,87.79
2019-01-12T10:50:28.587Z,87.32
2019-01-12T10:51:30.326Z,87.18
2019-01-12T10:52:30.964Z,87.22
2019-01-12T10:53:32.689Z,87.42
2019-01-12T10:54:33.326Z,87.84
2019-01-12T10:55:34.035Z,88.24
2019-01-12T10:56:34.671Z,87.73
2019-01-12T10:57:37.433Z,88.24
2019-01-12T10:58:38.072Z,88.14
2019-01-12T10:59:38.770Z,88.14
2019-01-12T11:00:39.409Z,88.14
2019-01-12T11:01:46.880Z,88.66
2019-01-12T11:02:47.526Z,88.45
2019-01-12T11:03:48.217Z,88.96
2019-01-12T11:04:48.855Z,88.56
2019-01-12T11:06:10.516Z,88.45
2019-01-12T11:07:11.210Z,88.45
2019-01-12T11:08:11.903Z,88.45
2019-01-12T11:09:12.533Z,88.76
2019-01-12T11:10:13.250Z,88.35
2019-01-12T11:11:13.890Z,88.56
2019-01-12T11:12:14.582Z,89.69
2019-01-12T11:13:15.228Z,90.00
2019-01-12T11:14:16.961Z,89.28
2019-01-12T11:15:17.602Z,88.86
2019-01-12T11:16:18.299Z,89.17
2019-01-12T11:17:18.952Z,89.07
2019-01-12T11:18:19.577Z,89.38
2019-01-12T11:19:20.219Z,89.58
2019-01-12T11:20:21.333Z,89.79
2019-01-12T11:21:21.964Z,89.89
2019-01-12T11:22:22.619Z,89.89
2019-01-12T11:23:23.262Z,90.34
2019-01-12T11:24:23.903Z,91.38
2019-01-12T11:25:24.540Z,91.17
2019-01-12T11:26:25.175Z,90.66
2019-01-12T11:27:25.820Z,90.92
2019-01-12T11:28:26.463Z,90.86
2019-01-12T11:29:27.108Z,90.86
2019-01-12T11:30:27.787Z,90.66
2019-01-12T11:31:28.387Z,90.66
2019-01-12T11:32:29.027Z,90.34
2019-01-12T11:33:29.696Z,90.86
2019-01-12T11:34:30.295Z,90.66
2019-01-12T11:35:30.941Z,91.27
2019-01-12T11:36:31.679Z,90.34
2019-01-12T11:37:32.320Z,90.34
2019-01-12T11:38:33.034Z,90.20
2019-01-12T11:39:33.669Z,90.41
2019-01-12T11:40:34.369Z,90.20
2019-01-12T11:41:35.003Z,90.30
2019-01-12T11:42:35.712Z,90.41
2019-01-12T11:43:36.355Z,90.00
2019-01-12T11:44:37.060Z,90.20
2019-01-12T11:45:37.692Z,90.41
2019-01-12T11:46:38.414Z,89.79
2019-01-12T11:47:39.043Z,90.36
2019-01-12T11:48:39.751Z,90.51
2019-01-12T11:49:40.388Z,90.16
2019-01-12T11:50:41.092Z,89.89
2019-01-12T11:51:41.726Z,90.03
2019-01-12T11:52:42.446Z,89.89
2019-01-12T11:53:43.072Z,89.79
2019-01-12T11:54:43.740Z,89.69
2019-01-12T11:55:44.381Z,89.89
2019-01-12T11:56:45.088Z,89.79
2019-01-12T11:57:45.730Z,89.58
2019-01-12T11:58:46.371Z,89.95
2019-01-12T11:59:47.015Z,90.20
2019-01-12T12:00:47.779Z,89.58
2019-01-12T12:01:48.703Z,89.69
2019-01-12T12:02:49.341Z,89.89
2019-01-12T12:03:49.993Z,90.51
2019-01-12T12:04:50.630Z,89.38
2019-01-12T12:05:51.278Z,90.61
2019-01-12T12:06:51.918Z,89.58
2019-01-12T12:07:52.558Z,90.00
2019-01-12T12:08:53.196Z,90.00
2019-01-12T12:09:53.828Z,90.30
2019-01-12T12:10:54.465Z,90.00
2019-01-12T12:11:55.138Z,90.30
2019-01-12T12:12:55.744Z,90.41
2019-01-12T12:13:56.384Z,90.61
2019-01-12T12:14:57.030Z,90.81
2019-01-12T12:15:57.674Z,90.92
2019-01-12T12:16:58.308Z,90.72
2019-01-12T12:17:58.951Z,90.92
2019-01-12T12:18:59.589Z,90.81
2019-01-12T12:20:00.233Z,90.72
2019-01-12T12:21:00.872Z,90.72
2019-01-12T12:22:01.517Z,90.61
2019-01-12T12:23:02.170Z,90.92
2019-01-12T12:24:02.818Z,91.33
2019-01-12T12:25:03.452Z,91.33
2019-01-12T12:26:04.096Z,90.16
2019-01-12T12:27:05.164Z,90.51
2019-01-12T12:28:05.365Z,91.33
2019-01-12T12:29:06.009Z,91.23
2019-01-12T12:30:06.656Z,90.72
2019-01-12T12:31:07.294Z,91.23
2019-01-12T12:32:07.949Z,90.72
2019-01-12T12:33:08.602Z,91.23
2019-01-12T12:34:09.269Z,91.02
2019-01-12T12:35:09.881Z,90.61
2019-01-12T12:36:10.517Z,90.81
2019-01-12T12:37:11.149Z,90.61
2019-01-12T12:38:11.796Z,91.23
2019-01-12T12:39:12.437Z,91.13
2019-01-12T12:40:13.074Z,91.44
2019-01-12T12:41:13.713Z,90.61
2019-01-12T12:42:14.356Z,90.92
2019-01-12T12:43:14.997Z,91.44
2019-01-12T12:44:15.522Z,90.92
2019-01-12T12:45:16.166Z,91.33
2019-01-12T12:46:16.792Z,91.39
2019-01-12T12:47:17.436Z,91.02
2019-01-12T12:48:18.129Z,90.51
2019-01-12T12:49:18.759Z,90.61
2019-01-12T12:50:19.414Z,90.81
2019-01-12T12:51:20.064Z,91.13
2019-01-12T12:52:20.708Z,90.92
2019-01-12T12:53:21.343Z,90.78
2019-01-12T12:54:21.981Z,90.67
2019-01-12T12:55:22.625Z,90.72
2019-01-12T12:56:23.389Z,90.67
2019-01-12T12:57:24.029Z,90.98
2019-01-12T12:58:24.671Z,90.67
2019-01-12T12:59:25.345Z,90.88
2019-01-12T13:00:25.990Z,90.81
2019-01-12T13:01:26.689Z,90.92
2019-01-12T13:02:27.327Z,90.78
2019-01-12T13:03:28.034Z,90.57
2019-01-12T13:04:28.687Z,91.39